Time;durP1;ratioP1;P1;durP2;ratioP2;P2;SDS_P1;SDS_P2;PMS_P1;PMS_P2;Temp;Humidity;BMP_temperature;BMP_pressure;BME280_temperature;BME280_humidity;BME280_pressure;Samples;Min_cycle;Max_cycle;Signal;HPM_P1;HPM_P2
2023/09/24 00:00:10;;;;;;;;;;;10.80;99.90;;;;;;5079723;28;19928;-67
2023/09/24 00:02:36;;;;;;;;;;;10.90;99.90;;;;;;5079604;28;20398;-66
2023/09/24 00:05:04;;;;;;;;;;;10.90;99.90;;;;;;5079487;28;20467;-67
2023/09/24 00:07:30;;;;;;;;;;;10.80;99.90;;;;;;5080113;28;20016;-67
2023/09/24 00:09:59;;;;;;;;;;;10.80;99.90;;;;;;5080519;28;20377;-66
2023/09/24 00:12:25;;;;;;;;;;;11.00;99.90;;;;;;5062510;28;20459;-67
2023/09/24 00:14:51;;;;;;;;;;;11.00;99.90;;;;;;5080804;28;19978;-67
2023/09/24 00:17:17;;;;;;;;;;;11.10;99.90;;;;;;5062846;28;19928;-66
2023/09/24 00:19:42;;;;;;;;;;;10.90;99.90;;;;;;5062502;28;19924;-67
2023/09/24 00:22:10;;;;;;;;;;;11.00;99.90;;;;;;5079047;28;19927;-67
2023/09/24 00:24:35;;;;;;;;;;;11.10;99.90;;;;;;5079889;28;19924;-66
2023/09/24 00:27:01;;;;;;;;;;;11.00;99.90;;;;;;5081153;28;19924;-66
2023/09/24 00:29:26;;;;;;;;;;;11.10;99.90;;;;;;5066869;28;19924;-67
2023/09/24 00:31:53;;;;;;;;;;;11.50;99.90;;;;;;5065733;28;20018;-67
2023/09/24 00:34:18;;;;;;;;;;;11.30;99.90;;;;;;5085735;28;19924;-66
2023/09/24 00:36:44;;;;;;;;;;;11.40;99.90;;;;;;5083575;28;19927;-66
2023/09/24 00:39:10;;;;;;;;;;;11.30;99.90;;;;;;5084880;28;19928;-66
2023/09/24 00:41:36;;;;;;;;;;;11.60;99.90;;;;;;5067240;28;19927;-66
2023/09/24 00:44:02;;;;;;;;;;;11.50;99.90;;;;;;5084116;28;19920;-66
2023/09/24 00:46:29;;;;;;;;;;;11.60;99.90;;;;;;5066886;28;20286;-66
2023/09/24 00:48:57;;;;;;;;;;;11.60;99.90;;;;;;5085336;28;19920;-66
2023/09/24 00:51:23;;;;;;;;;;;11.70;99.90;;;;;;5084241;28;20417;-65
2023/09/24 00:53:51;;;;;;;;;;;11.60;99.90;;;;;;5084620;28;20189;-66
2023/09/24 00:56:17;;;;;;;;;;;11.50;99.90;;;;;;5083940;28;20026;-66
2023/09/24 00:58:47;;;;;;;;;;;11.50;99.90;;;;;;5083917;28;19984;-66
2023/09/24 01:01:13;;;;;;;;;;;11.50;99.90;;;;;;5066962;28;19920;-66
2023/09/24 01:03:40;;;;;;;;;;;11.50;99.90;;;;;;5084133;28;20023;-66
2023/09/24 01:06:06;;;;;;;;;;;11.40;99.90;;;;;;5084591;28;20412;-66
2023/09/24 01:08:33;;;;;;;;;;;11.70;99.90;;;;;;5084414;28;19943;-66
2023/09/24 01:10:59;;;;;;;;;;;11.60;99.90;;;;;;5083511;28;20071;-66
2023/09/24 01:13:35;;;;;;;;;;;11.30;99.90;;;;;;5067505;28;19924;-66
2023/09/24 01:16:00;;;;;;;;;;;11.20;99.90;;;;;;5083476;28;20014;-66
2023/09/24 01:18:26;;;;;;;;;;;11.40;99.90;;;;;;5084345;28;20019;-66
2023/09/24 01:20:51;;;;;;;;;;;11.30;99.90;;;;;;5084212;28;20227;-66
2023/09/24 01:23:17;;;;;;;;;;;11.00;99.90;;;;;;5050515;28;20089;-66
2023/09/24 01:25:45;;;;;;;;;;;10.90;99.90;;;;;;5084947;28;19982;-66
2023/09/24 01:28:11;;;;;;;;;;;10.90;99.90;;;;;;5067083;28;19927;-66
2023/09/24 01:30:38;;;;;;;;;;;11.00;99.90;;;;;;5083440;28;19924;-66
2023/09/24 01:33:04;;;;;;;;;;;10.70;99.90;;;;;;5067362;28;20034;-66
2023/09/24 01:35:32;;;;;;;;;;;10.90;99.90;;;;;;5067763;28;19920;-66
2023/09/24 01:38:06;;;;;;;;;;;10.60;99.90;;;;;;5066419;28;19927;-66
2023/09/24 01:40:33;;;;;;;;;;;10.50;99.90;;;;;;5083876;28;20011;-66
2023/09/24 01:42:59;;;;;;;;;;;10.80;99.90;;;;;;5084902;28;20018;-66
2023/09/24 01:45:26;;;;;;;;;;;10.50;99.90;;;;;;5067161;28;19966;-66
2023/09/24 01:47:52;;;;;;;;;;;10.80;99.90;;;;;;5084037;28;19931;-66
2023/09/24 01:50:18;;;;;;;;;;;10.80;99.90;;;;;;5083841;28;19924;-66
2023/09/24 01:52:45;;;;;;;;;;;10.70;99.90;;;;;;5066681;28;20023;-65
2023/09/24 01:55:15;;;;;;;;;;;10.40;99.90;;;;;;5085074;28;19924;-65
2023/09/24 01:57:44;;;;;;;;;;;10.40;99.90;;;;;;5083447;28;19963;-66
2023/09/24 02:00:26;;;;;;;;;;;10.60;99.90;;;;;;5084049;28;20480;-66
2023/09/24 02:02:52;;;;;;;;;;;10.30;99.90;;;;;;5083833;28;20366;-66
2023/09/24 02:05:19;;;;;;;;;;;10.50;99.90;;;;;;5067006;28;20553;-64
2023/09/24 02:07:51;;;;;;;;;;;10.20;99.90;;;;;;5083563;28;19920;-65
2023/09/24 02:10:18;;;;;;;;;;;10.40;99.90;;;;;;5083898;28;20631;-65
2023/09/24 02:12:47;;;;;;;;;;;10.20;99.90;;;;;;5083405;28;19928;-65
2023/09/24 02:15:14;;;;;;;;;;;10.20;99.90;;;;;;5084072;28;19930;-65
2023/09/24 02:17:39;;;;;;;;;;;10.40;99.90;;;;;;5083182;28;19920;-65
2023/09/24 02:20:13;;;;;;;;;;;10.20;99.90;;;;;;5083200;28;19920;-65
2023/09/24 02:22:38;;;;;;;;;;;10.10;99.90;;;;;;5083717;28;20018;-65
2023/09/24 02:25:06;;;;;;;;;;;10.30;99.90;;;;;;5083656;28;19967;-65
2023/09/24 02:27:34;;;;;;;;;;;10.00;99.90;;;;;;5083351;28;19959;-66
2023/09/24 02:29:59;;;;;;;;;;;10.20;99.90;;;;;;5083582;28;19924;-67
2023/09/24 02:32:27;;;;;;;;;;;9.90;99.90;;;;;;5082390;28;19935;-66
2023/09/24 02:34:53;;;;;;;;;;;10.20;99.90;;;;;;5083006;28;19927;-65
2023/09/24 02:37:18;;;;;;;;;;;10.20;99.90;;;;;;5066041;28;19924;-66
2023/09/24 02:39:44;;;;;;;;;;;10.20;99.90;;;;;;5083166;28;20395;-66
2023/09/24 02:42:09;;;;;;;;;;;10.20;99.90;;;;;;5082824;28;20343;-66
2023/09/24 02:44:36;;;;;;;;;;;10.20;99.90;;;;;;5082596;28;19971;-66
2023/09/24 02:47:04;;;;;;;;;;;10.10;99.90;;;;;;5083690;28;20374;-66
2023/09/24 02:49:29;;;;;;;;;;;10.10;99.90;;;;;;5084088;28;20001;-66
2023/09/24 02:51:55;;;;;;;;;;;10.20;99.90;;;;;;5066442;28;19932;-66
2023/09/24 02:54:21;;;;;;;;;;;10.40;99.90;;;;;;5066526;28;19930;-66
2023/09/24 02:56:47;;;;;;;;;;;10.20;99.90;;;;;;5065740;28;19963;-66
2023/09/24 02:59:12;;;;;;;;;;;10.30;99.90;;;;;;5066260;28;19920;-66
2023/09/24 03:01:46;;;;;;;;;;;10.10;99.90;;;;;;5082426;28;20492;-66
2023/09/24 03:04:12;;;;;;;;;;;10.30;99.90;;;;;;5082285;28;19947;-66
2023/09/24 03:06:37;;;;;;;;;;;10.10;99.90;;;;;;5065339;28;19924;-67
2023/09/24 03:09:06;;;;;;;;;;;10.00;99.90;;;;;;5081689;28;19924;-66
2023/09/24 03:11:32;;;;;;;;;;;10.30;99.90;;;;;;5048744;28;19932;-66
2023/09/24 03:13:58;;;;;;;;;;;10.20;99.90;;;;;;5081700;28;20439;-66
2023/09/24 03:16:26;;;;;;;;;;;9.90;99.90;;;;;;5081109;28;19924;-66
2023/09/24 03:18:51;;;;;;;;;;;10.30;99.90;;;;;;5081649;28;19924;-66
2023/09/24 03:21:17;;;;;;;;;;;10.00;99.90;;;;;;5081804;28;20015;-67
2023/09/24 03:23:43;;;;;;;;;;;10.30;99.90;;;;;;5064034;28;19973;-67
2023/09/24 03:26:14;;;;;;;;;;;10.40;99.90;;;;;;5080678;28;20046;-67
2023/09/24 03:28:39;;;;;;;;;;;10.20;99.90;;;;;;5080679;28;20131;-66
2023/09/24 03:31:12;;;;;;;;;;;10.40;99.90;;;;;;5079939;28;19939;-66
2023/09/24 03:33:37;;;;;;;;;;;10.50;99.90;;;;;;5081207;28;19937;-67
2023/09/24 03:36:04;;;;;;;;;;;10.20;99.90;;;;;;5080255;28;20377;-66
2023/09/24 03:38:29;;;;;;;;;;;10.20;99.90;;;;;;5080062;28;19968;-66
2023/09/24 03:40:55;;;;;;;;;;;10.40;99.90;;;;;;5079788;28;19920;-66
2023/09/24 03:43:21;;;;;;;;;;;10.40;99.90;;;;;;5063454;28;19920;-66
2023/09/24 03:45:46;;;;;;;;;;;10.30;99.90;;;;;;5080230;28;20349;-66
2023/09/24 03:48:13;;;;;;;;;;;10.40;99.90;;;;;;5064066;28;19924;-66
2023/09/24 03:50:39;;;;;;;;;;;10.30;99.90;;;;;;5080182;28;19927;-66
2023/09/24 03:53:04;;;;;;;;;;;10.30;99.90;;;;;;5080118;28;19920;-66
2023/09/24 03:55:30;;;;;;;;;;;10.40;99.90;;;;;;5063178;28;20019;-66
2023/09/24 03:57:56;;;;;;;;;;;10.80;99.90;;;;;;5080455;28;20405;-66
2023/09/24 04:00:22;;;;;;;;;;;10.50;99.90;;;;;;5079389;28;20436;-66
2023/09/24 04:02:48;;;;;;;;;;;10.60;99.90;;;;;;5080295;28;20246;-66
2023/09/24 04:05:21;;;;;;;;;;;10.50;99.90;;;;;;5081910;28;20142;-66
2023/09/24 04:07:54;;;;;;;;;;;11.00;99.90;;;;;;5080120;28;19935;-66
2023/09/24 04:10:20;;;;;;;;;;;10.60;99.90;;;;;;5080491;28;20144;-66
2023/09/24 04:12:49;;;;;;;;;;;10.60;99.90;;;;;;5062704;28;20317;-66
2023/09/24 04:15:19;;;;;;;;;;;11.00;99.90;;;;;;5080033;28;20124;-66
2023/09/24 04:17:46;;;;;;;;;;;10.70;99.90;;;;;;5063450;28;19964;-65
2023/09/24 04:20:12;;;;;;;;;;;10.70;99.90;;;;;;5079831;28;19924;-66
2023/09/24 04:22:38;;;;;;;;;;;10.70;99.90;;;;;;5079745;28;19994;-66
2023/09/24 04:25:03;;;;;;;;;;;10.80;99.90;;;;;;5080827;28;19959;-67
2023/09/24 04:27:29;;;;;;;;;;;10.70;99.90;;;;;;5063184;28;19920;-67
2023/09/24 04:29:55;;;;;;;;;;;11.00;99.90;;;;;;5081418;28;20119;-67
2023/09/24 04:32:20;;;;;;;;;;;10.90;99.90;;;;;;5062642;28;20343;-67
2023/09/24 04:34:46;;;;;;;;;;;10.70;99.90;;;;;;5079165;28;20572;-66
2023/09/24 04:37:12;;;;;;;;;;;10.90;99.90;;;;;;5079616;28;20145;-66
2023/09/24 04:39:38;;;;;;;;;;;10.70;99.90;;;;;;5079561;28;20151;-66
2023/09/24 04:42:06;;;;;;;;;;;10.90;99.90;;;;;;5079454;28;19959;-66
2023/09/24 04:44:32;;;;;;;;;;;10.50;99.90;;;;;;5079747;28;19920;-66
2023/09/24 04:46:57;;;;;;;;;;;10.80;99.90;;;;;;5079205;28;19934;-66
2023/09/24 04:49:23;;;;;;;;;;;10.80;99.90;;;;;;5079678;28;20354;-67
2023/09/24 04:51:50;;;;;;;;;;;10.50;99.90;;;;;;5062374;28;19931;-66
2023/09/24 04:54:16;;;;;;;;;;;10.70;99.90;;;;;;5062195;28;19963;-66
2023/09/24 04:56:41;;;;;;;;;;;10.70;99.90;;;;;;5079151;28;19978;-66
2023/09/24 04:59:07;;;;;;;;;;;10.50;99.90;;;;;;5079940;28;20354;-67
2023/09/24 05:01:32;;;;;;;;;;;10.70;99.90;;;;;;5045484;28;20007;-67
2023/09/24 05:03:59;;;;;;;;;;;10.40;99.90;;;;;;5080449;28;19927;-66
2023/09/24 05:06:24;;;;;;;;;;;10.40;99.90;;;;;;5061781;28;20011;-66
2023/09/24 05:08:52;;;;;;;;;;;10.50;99.90;;;;;;5079068;28;20015;-66
2023/09/24 05:11:18;;;;;;;;;;;10.50;99.90;;;;;;5078968;28;19924;-66
2023/09/24 05:13:44;;;;;;;;;;;10.10;99.90;;;;;;5083023;28;19981;-67
2023/09/24 05:16:09;;;;;;;;;;;10.00;99.90;;;;;;5083120;28;19928;-67
2023/09/24 05:18:35;;;;;;;;;;;10.30;99.90;;;;;;5082690;28;20001;-66
2023/09/24 05:21:03;;;;;;;;;;;10.00;99.90;;;;;;5084245;28;20389;-67
2023/09/24 05:23:29;;;;;;;;;;;9.90;99.90;;;;;;5082698;28;20366;-67
2023/09/24 05:25:54;;;;;;;;;;;9.90;99.90;;;;;;5082326;28;19931;-68
2023/09/24 05:28:20;;;;;;;;;;;9.80;99.90;;;;;;5083218;28;20293;-67
2023/09/24 05:30:53;;;;;;;;;;;9.70;99.90;;;;;;5082869;28;20014;-67
2023/09/24 05:33:18;;;;;;;;;;;9.70;99.90;;;;;;5083811;28;19928;-66
2023/09/24 05:35:48;;;;;;;;;;;10.00;99.90;;;;;;5082329;28;19920;-66
2023/09/24 05:38:13;;;;;;;;;;;9.80;99.90;;;;;;5082809;28;19920;-67
2023/09/24 05:40:39;;;;;;;;;;;9.80;99.90;;;;;;5065937;28;20008;-66
2023/09/24 05:43:05;;;;;;;;;;;9.80;99.90;;;;;;5066379;28;20367;-66
2023/09/24 05:45:30;;;;;;;;;;;9.60;99.90;;;;;;5082749;28;19951;-67
2023/09/24 05:47:56;;;;;;;;;;;9.70;99.90;;;;;;5082102;28;20014;-66
2023/09/24 05:50:22;;;;;;;;;;;9.60;99.90;;;;;;5048671;28;19920;-67
2023/09/24 05:52:47;;;;;;;;;;;9.60;99.90;;;;;;5065306;28;20325;-67
2023/09/24 05:55:13;;;;;;;;;;;9.70;99.90;;;;;;5083694;28;19951;-67
2023/09/24 05:57:38;;;;;;;;;;;9.80;99.90;;;;;;5082471;28;20488;-67
2023/09/24 06:00:04;;;;;;;;;;;10.00;99.90;;;;;;5082239;28;19932;-67
2023/09/24 06:02:30;;;;;;;;;;;10.10;99.90;;;;;;5065604;28;20408;-67
2023/09/24 06:04:55;;;;;;;;;;;10.20;99.90;;;;;;5082464;28;20033;-66
2023/09/24 06:07:21;;;;;;;;;;;9.80;99.90;;;;;;5064998;28;20421;-66
2023/09/24 06:09:47;;;;;;;;;;;10.20;99.90;;;;;;5064802;28;19974;-65
2023/09/24 06:12:13;;;;;;;;;;;10.20;99.90;;;;;;5064789;28;19936;-66
2023/09/24 06:14:39;;;;;;;;;;;10.10;99.90;;;;;;5081976;28;19931;-66
2023/09/24 06:17:05;;;;;;;;;;;10.30;99.90;;;;;;5081599;28;20010;-65
2023/09/24 06:19:30;;;;;;;;;;;10.30;99.90;;;;;;5064528;28;19998;-66
2023/09/24 06:21:56;;;;;;;;;;;10.00;99.90;;;;;;5081561;28;19920;-67
2023/09/24 06:24:22;;;;;;;;;;;10.30;99.90;;;;;;5080965;28;19931;-67
2023/09/24 06:26:47;;;;;;;;;;;10.10;99.90;;;;;;5081810;28;20016;-67
2023/09/24 06:29:14;;;;;;;;;;;10.50;99.90;;;;;;5081516;28;19979;-67
2023/09/24 06:31:39;;;;;;;;;;;10.40;99.90;;;;;;5082621;28;19951;-67
2023/09/24 06:34:05;;;;;;;;;;;10.30;99.90;;;;;;5081375;28;20084;-67
2023/09/24 06:36:31;;;;;;;;;;;10.70;99.90;;;;;;5064329;28;20102;-67
2023/09/24 06:38:56;;;;;;;;;;;10.70;99.90;;;;;;5081617;28;20281;-67
2023/09/24 06:41:22;;;;;;;;;;;10.90;99.90;;;;;;5065215;28;19971;-67
2023/09/24 06:43:48;;;;;;;;;;;11.00;99.90;;;;;;5065008;28;20446;-66
2023/09/24 06:46:13;;;;;;;;;;;11.30;99.90;;;;;;5081606;28;19924;-66
2023/09/24 06:48:39;;;;;;;;;;;11.50;99.90;;;;;;5080847;28;19943;-68
2023/09/24 06:51:10;;;;;;;;;;;11.70;99.90;;;;;;5081039;28;19974;-66
2023/09/24 06:53:36;;;;;;;;;;;12.20;99.90;;;;;;5080699;28;19924;-68
2023/09/24 06:56:06;;;;;;;;;;;12.40;99.90;;;;;;5081345;28;19930;-68
2023/09/24 06:58:35;;;;;;;;;;;12.50;99.90;;;;;;5064202;28;19927;-67
2023/09/24 07:01:02;;;;;;;;;;;12.80;99.90;;;;;;5082256;28;20046;-68
2023/09/24 07:03:28;;;;;;;;;;;12.90;99.90;;;;;;5047960;28;20450;-67
2023/09/24 07:05:54;;;;;;;;;;;13.20;99.90;;;;;;5081128;28;19931;-67
2023/09/24 07:08:20;;;;;;;;;;;13.50;99.90;;;;;;5063917;28;19924;-68
2023/09/24 07:10:46;;;;;;;;;;;13.50;99.90;;;;;;5080671;28;19930;-68
2023/09/24 07:13:12;;;;;;;;;;;13.90;99.90;;;;;;5080792;28;19924;-67
2023/09/24 07:15:37;;;;;;;;;;;14.10;99.90;;;;;;5046974;28;20344;-67
2023/09/24 07:18:03;;;;;;;;;;;14.30;99.90;;;;;;5080314;28;19971;-67
2023/09/24 07:20:29;;;;;;;;;;;14.30;99.90;;;;;;5080430;28;19935;-67
2023/09/24 07:22:54;;;;;;;;;;;14.50;99.90;;;;;;5080018;28;19942;-67
2023/09/24 07:25:20;;;;;;;;;;;14.60;99.90;;;;;;5080955;28;19928;-67
2023/09/24 07:27:46;;;;;;;;;;;14.50;99.90;;;;;;5079976;28;19920;-66
2023/09/24 07:30:12;;;;;;;;;;;14.60;99.90;;;;;;5046777;28;19920;-65
2023/09/24 07:32:38;;;;;;;;;;;14.80;99.90;;;;;;5079602;28;19950;-67
2023/09/24 07:35:04;;;;;;;;;;;14.80;99.90;;;;;;5063418;28;20534;-67
2023/09/24 07:37:29;;;;;;;;;;;15.30;99.90;;;;;;5079262;28;20153;-67
2023/09/24 07:39:55;;;;;;;;;;;15.60;99.90;;;;;;5080649;28;20020;-67
2023/09/24 07:42:21;;;;;;;;;;;15.30;99.90;;;;;;5047379;28;19920;-67
2023/09/24 07:44:47;;;;;;;;;;;15.60;99.90;;;;;;5080107;28;19934;-66
2023/09/24 07:47:12;;;;;;;;;;;15.70;99.90;;;;;;5080344;28;20416;-67
2023/09/24 07:49:38;;;;;;;;;;;15.80;99.90;;;;;;5078748;28;20456;-67
2023/09/24 07:52:03;;;;;;;;;;;15.80;99.90;;;;;;5062024;28;20123;-68
2023/09/24 07:54:29;;;;;;;;;;;15.90;99.90;;;;;;5079065;28;20349;-67
2023/09/24 07:56:55;;;;;;;;;;;15.90;99.90;;;;;;5063045;28;20276;-67
2023/09/24 07:59:23;;;;;;;;;;;15.90;99.90;;;;;;5079395;28;19924;-68
2023/09/24 08:01:48;;;;;;;;;;;15.90;99.90;;;;;;5062501;28;20195;-67
2023/09/24 08:04:14;;;;;;;;;;;15.90;99.90;;;;;;5079069;28;20143;-68
2023/09/24 08:06:39;;;;;;;;;;;16.00;99.90;;;;;;5062113;28;20386;-68
2023/09/24 08:09:05;;;;;;;;;;;16.00;99.90;;;;;;5062070;28;19920;-67
2023/09/24 08:11:31;;;;;;;;;;;16.30;99.90;;;;;;5061949;28;19927;-67
2023/09/24 08:13:57;;;;;;;;;;;16.50;99.90;;;;;;5078618;28;20393;-66
2023/09/24 08:16:22;;;;;;;;;;;16.90;99.90;;;;;;5061785;28;19951;-67
2023/09/24 08:18:49;;;;;;;;;;;16.80;99.90;;;;;;5078825;28;19967;-67
2023/09/24 08:21:15;;;;;;;;;;;16.70;99.90;;;;;;5078700;28;19920;-67
2023/09/24 08:23:41;;;;;;;;;;;17.10;99.90;;;;;;5078919;28;20389;-67
2023/09/24 08:26:06;;;;;;;;;;;17.40;99.90;;;;;;5079363;28;19928;-67
2023/09/24 08:28:32;;;;;;;;;;;17.40;99.90;;;;;;5078954;28;20328;-66
2023/09/24 08:30:58;;;;;;;;;;;17.60;99.90;;;;;;5061841;28;20380;-66
2023/09/24 08:33:23;;;;;;;;;;;17.40;99.90;;;;;;5078653;28;20619;-66
2023/09/24 08:35:49;;;;;;;;;;;17.80;99.90;;;;;;5078815;28;20389;-66
2023/09/24 08:38:14;;;;;;;;;;;17.70;99.90;;;;;;5062399;28;20055;-66
2023/09/24 08:40:40;;;;;;;;;;;17.80;99.90;;;;;;5045305;28;19951;-66
2023/09/24 08:43:12;;;;;;;;;;;18.00;99.90;;;;;;5079012;28;20163;-66
2023/09/24 08:45:38;;;;;;;;;;;18.10;99.90;;;;;;5061849;28;19924;-66
2023/09/24 08:48:07;;;;;;;;;;;18.30;99.90;;;;;;5080341;28;20156;-66
2023/09/24 08:50:41;;;;;;;;;;;18.30;99.90;;;;;;5065539;28;20337;-66
2023/09/24 08:53:09;;;;;;;;;;;18.40;99.90;;;;;;5065942;28;20000;-66
2023/09/24 08:55:34;;;;;;;;;;;18.40;99.90;;;;;;5065432;28;20452;-65
2023/09/24 08:58:00;;;;;;;;;;;18.50;99.90;;;;;;5082411;28;19967;-65
2023/09/24 09:00:26;;;;;;;;;;;18.90;99.90;;;;;;5081983;28;19942;-66
2023/09/24 09:02:51;;;;;;;;;;;19.00;99.90;;;;;;5082706;28;19920;-65
2023/09/24 09:05:22;;;;;;;;;;;19.00;99.90;;;;;;5083392;28;19920;-65
2023/09/24 09:08:02;;;;;;;;;;;19.10;99.90;;;;;;5084126;28;20067;-65
2023/09/24 09:10:34;;;;;;;;;;;19.00;99.90;;;;;;5082204;28;19956;-64
2023/09/24 09:13:14;;;;;;;;;;;19.10;99.90;;;;;;5083315;28;19955;-65
2023/09/24 09:15:40;;;;;;;;;;;19.20;99.90;;;;;;5065947;28;20321;-65
2023/09/24 09:18:06;;;;;;;;;;;19.40;99.90;;;;;;5065051;28;20178;-65
2023/09/24 09:20:42;;;;;;;;;;;19.30;99.90;;;;;;5065096;28;19924;-65
2023/09/24 09:23:11;;;;;;;;;;;19.30;96.40;;;;;;5065169;28;20383;-65
2023/09/24 09:25:51;;;;;;;;;;;19.60;99.90;;;;;;5083576;28;20360;-64
2023/09/24 09:28:24;;;;;;;;;;;19.30;99.90;;;;;;5065425;28;20271;-64
2023/09/24 09:30:59;;;;;;;;;;;19.60;74.60;;;;;;5082787;28;20258;-64
2023/09/24 09:33:26;;;;;;;;;;;19.60;72.40;;;;;;5081624;28;20437;-65
2023/09/24 09:35:51;;;;;;;;;;;19.90;99.90;;;;;;5082438;28;19920;-64
2023/09/24 09:38:17;;;;;;;;;;;19.70;91.10;;;;;;5081783;28;19924;-65
2023/09/24 09:40:43;;;;;;;;;;;19.90;91.30;;;;;;5064637;28;19942;-64
2023/09/24 09:43:10;;;;;;;;;;;20.00;71.00;;;;;;5081762;28;20382;-63
2023/09/24 09:45:35;;;;;;;;;;;20.30;99.90;;;;;;5081552;28;19975;-64
2023/09/24 09:48:04;;;;;;;;;;;20.10;34.80;;;;;;5081529;28;20394;-64
2023/09/24 09:50:34;;;;;;;;;;;20.30;99.90;;;;;;5081867;28;19924;-64
2023/09/24 09:53:03;;;;;;;;;;;20.30;99.90;;;;;;5081492;28;19924;-65
2023/09/24 09:55:29;;;;;;;;;;;20.30;66.50;;;;;;5083013;28;19924;-64
2023/09/24 09:57:55;;;;;;;;;;;20.20;1.00;;;;;;5081557;28;20086;-65
2023/09/24 10:00:20;;;;;;;;;;;20.50;13.50;;;;;;5080545;28;20005;-64
2023/09/24 10:02:48;;;;;;;;;;;20.40;18.20;;;;;;5081143;28;20470;-64
2023/09/24 10:05:14;;;;;;;;;;;20.40;24.50;;;;;;5081660;28;19924;-64
2023/09/24 10:07:40;;;;;;;;;;;20.50;38.60;;;;;;5081386;28;20278;-64
2023/09/24 10:10:25;;;;;;;;;;;20.60;99.90;;;;;;5081290;28;20453;-64
2023/09/24 10:12:51;;;;;;;;;;;20.90;99.90;;;;;;5081182;28;20132;-63
2023/09/24 10:15:23;;;;;;;;;;;20.70;96.80;;;;;;5064516;28;20219;-64
2023/09/24 10:18:08;;;;;;;;;;;20.50;90.80;;;;;;5082480;28;19924;-64
2023/09/24 10:20:49;;;;;;;;;;;21.00;91.20;;;;;;5080727;28;19927;-64
2023/09/24 10:23:35;;;;;;;;;;;21.00;6.20;;;;;;5082800;28;20285;-65
2023/09/24 10:26:04;;;;;;;;;;;20.70;1.00;;;;;;5082242;28;20432;-64
2023/09/24 10:28:50;;;;;;;;;;;21.30;99.90;;;;;;5080593;28;20227;-63
2023/09/24 10:31:17;;;;;;;;;;;21.30;1.00;;;;;;5063410;28;19935;-64
2023/09/24 10:33:58;;;;;;;;;;;21.60;99.90;;;;;;5082086;28;19928;-64
2023/09/24 10:36:31;;;;;;;;;;;21.40;99.90;;;;;;5080305;28;19977;-64
2023/09/24 10:39:00;;;;;;;;;;;20.90;82.50;;;;;;5081138;28;19967;-64
2023/09/24 10:41:25;;;;;;;;;;;20.90;50.20;;;;;;5080290;28;20263;-64
2023/09/24 10:44:11;;;;;;;;;;;21.20;99.90;;;;;;5063678;28;20155;-64
2023/09/24 10:46:37;;;;;;;;;;;21.30;30.80;;;;;;5073173;28;19928;-64
2023/09/24 10:49:03;;;;;;;;;;;21.50;88.10;;;;;;5064160;28;19987;-64
2023/09/24 10:51:28;;;;;;;;;;;21.60;65.70;;;;;;5080396;28;20274;-64
2023/09/24 10:54:12;;;;;;;;;;;21.50;1.00;;;;;;5063469;28;19973;-64
2023/09/24 10:56:38;;;;;;;;;;;21.40;1.00;;;;;;5079929;28;19963;-65
2023/09/24 10:59:04;;;;;;;;;;;21.90;75.30;;;;;;5082261;28;20463;-65
2023/09/24 11:01:30;;;;;;;;;;;21.90;1.00;;;;;;5081560;28;19920;-63
2023/09/24 11:03:56;;;;;;;;;;;22.20;18.50;;;;;;5080264;28;20020;-63
2023/09/24 11:06:31;;;;;;;;;;;22.30;45.20;;;;;;5080127;28;20145;-64
2023/09/24 11:09:13;;;;;;;;;;;22.00;95.00;;;;;;5080153;28;20102;-64
2023/09/24 11:11:39;;;;;;;;;;;21.80;1.00;;;;;;5079833;28;20101;-64
2023/09/24 11:14:13;;;;;;;;;;;21.80;1.00;;;;;;5081237;28;20440;-63
2023/09/24 11:16:39;;;;;;;;;;;22.10;99.90;;;;;;5062758;28;19924;-64
2023/09/24 11:19:05;;;;;;;;;;;22.00;1.00;;;;;;5063265;28;20314;-63
2023/09/24 11:21:31;;;;;;;;;;;21.90;28.80;;;;;;5081864;28;19951;-64
2023/09/24 11:23:56;;;;;;;;;;;22.00;1.00;;;;;;5080688;28;19928;-64
2023/09/24 11:26:28;;;;;;;;;;;21.90;1.00;;;;;;5079461;28;19954;-64
2023/09/24 11:28:57;;;;;;;;;;;22.10;1.00;;;;;;5062826;28;20382;-64
2023/09/24 11:31:24;;;;;;;;;;;22.20;1.00;;;;;;5079403;28;20147;-64
2023/09/24 11:33:56;;;;;;;;;;;22.60;1.00;;;;;;5080008;28;20336;-65
2023/09/24 11:36:24;;;;;;;;;;;22.40;1.00;;;;;;5046371;28;20378;-65
2023/09/24 11:38:58;;;;;;;;;;;22.50;24.50;;;;;;5080910;28;19924;-64
2023/09/24 11:41:23;;;;;;;;;;;22.10;1.00;;;;;;5079667;28;19924;-65
2023/09/24 11:43:56;;;;;;;;;;;22.10;1.00;;;;;;5079374;28;19947;-64
2023/09/24 11:46:25;;;;;;;;;;;22.10;1.00;;;;;;5063005;28;19924;-65
2023/09/24 11:48:52;;;;;;;;;;;22.20;1.00;;;;;;5079108;28;19920;-64
2023/09/24 11:51:20;;;;;;;;;;;22.60;1.00;;;;;;5080979;28;20236;-64
2023/09/24 11:53:46;;;;;;;;;;;22.50;1.00;;;;;;5079024;28;19924;-63
2023/09/24 11:56:11;;;;;;;;;;;22.30;1.00;;;;;;5079034;28;20135;-64
2023/09/24 11:58:37;;;;;;;;;;;22.90;1.00;;;;;;5079591;28;19977;-64
2023/09/24 12:01:04;;;;;;;;;;;22.90;1.00;;;;;;5063033;28;20251;-64
2023/09/24 12:03:29;;;;;;;;;;;23.20;1.00;;;;;;5080738;28;19970;-64
2023/09/24 12:05:55;;;;;;;;;;;23.30;1.00;;;;;;5080578;28;19932;-64
2023/09/24 12:08:21;;;;;;;;;;;23.00;1.00;;;;;;5079366;28;20230;-64
2023/09/24 12:10:46;;;;;;;;;;;23.40;1.00;;;;;;5078964;28;19930;-64
2023/09/24 12:13:13;;;;;;;;;;;23.30;1.00;;;;;;5062403;28;20015;-64
2023/09/24 12:15:38;;;;;;;;;;;23.30;1.00;;;;;;5079625;28;20232;-64
2023/09/24 12:18:05;;;;;;;;;;;23.20;1.00;;;;;;5080463;28;19924;-65
2023/09/24 12:20:31;;;;;;;;;;;23.10;1.00;;;;;;5079045;28;19926;-64
2023/09/24 12:22:59;;;;;;;;;;;23.00;1.00;;;;;;5082614;28;20014;-65
2023/09/24 12:25:24;;;;;;;;;;;23.10;1.00;;;;;;5083433;28;19920;-64
2023/09/24 12:27:50;;;;;;;;;;;22.80;1.00;;;;;;5084753;28;19930;-64
2023/09/24 12:30:15;;;;;;;;;;;22.80;1.00;;;;;;5083607;28;19963;-64
2023/09/24 12:32:41;;;;;;;;;;;22.80;1.00;;;;;;5082705;28;20034;-64
2023/09/24 12:35:08;;;;;;;;;;;23.30;1.00;;;;;;5083310;28;20531;-64
2023/09/24 12:37:34;;;;;;;;;;;23.00;1.00;;;;;;5066364;28;19927;-64
2023/09/24 12:40:01;;;;;;;;;;;23.00;1.00;;;;;;5084667;28;20516;-65
2023/09/24 12:42:30;;;;;;;;;;;22.90;1.00;;;;;;5083197;28;20281;-65
2023/09/24 12:44:57;;;;;;;;;;;22.70;1.00;;;;;;5084926;28;20550;-64
2023/09/24 12:47:22;;;;;;;;;;;22.70;1.00;;;;;;5082890;28;19930;-64
2023/09/24 12:49:48;;;;;;;;;;;22.70;1.00;;;;;;5082688;28;19921;-64
2023/09/24 12:52:14;;;;;;;;;;;22.80;1.00;;;;;;5083045;28;20173;-64
2023/09/24 12:54:39;;;;;;;;;;;22.80;1.00;;;;;;5082543;28;19931;-63
2023/09/24 12:57:05;;;;;;;;;;;22.20;1.00;;;;;;5049120;28;19931;-64
2023/09/24 12:59:30;;;;;;;;;;;21.80;1.00;;;;;;5082937;28;20097;-65
2023/09/24 13:01:56;;;;;;;;;;;21.70;1.00;;;;;;5084250;28;19924;-65
2023/09/24 13:04:21;;;;;;;;;;;21.40;1.00;;;;;;5082499;28;19973;-65
2023/09/24 13:06:47;;;;;;;;;;;21.00;1.00;;;;;;5065515;28;19924;-65
2023/09/24 13:09:16;;;;;;;;;;;20.80;1.00;;;;;;5065810;28;20305;-64
2023/09/24 13:11:45;;;;;;;;;;;20.70;1.00;;;;;;5082415;28;19926;-64
2023/09/24 13:14:12;;;;;;;;;;;20.40;1.00;;;;;;5082886;28;19950;-64
2023/09/24 13:16:38;;;;;;;;;;;20.40;1.00;;;;;;5083501;28;20450;-64
2023/09/24 13:19:03;;;;;;;;;;;20.50;1.00;;;;;;5065509;28;19998;-64
2023/09/24 13:21:29;;;;;;;;;;;20.50;1.00;;;;;;5082436;28;20397;-64
2023/09/24 13:23:54;;;;;;;;;;;20.70;1.00;;;;;;5081943;28;19931;-64
2023/09/24 13:26:20;;;;;;;;;;;21.00;1.00;;;;;;5082440;28;20001;-64
2023/09/24 13:28:46;;;;;;;;;;;21.10;1.00;;;;;;5065485;28;19920;-65
2023/09/24 13:31:11;;;;;;;;;;;21.20;1.00;;;;;;5082444;28;19947;-65
2023/09/24 13:33:37;;;;;;;;;;;21.40;1.00;;;;;;5081708;28;19924;-65
2023/09/24 13:36:03;;;;;;;;;;;21.60;1.00;;;;;;5083583;28;19977;-65
2023/09/24 13:38:29;;;;;;;;;;;22.20;1.00;;;;;;5064938;28;20016;-64
2023/09/24 13:40:55;;;;;;;;;;;22.70;1.00;;;;;;5082778;28;19924;-63
2023/09/24 13:43:20;;;;;;;;;;;22.90;1.00;;;;;;5065538;28;20143;-65
2023/09/24 13:45:46;;;;;;;;;;;22.90;1.00;;;;;;5081860;28;19979;-65
2023/09/24 13:48:12;;;;;;;;;;;22.80;1.00;;;;;;5082790;28;19926;-64
2023/09/24 13:50:39;;;;;;;;;;;23.00;1.00;;;;;;5081072;28;19982;-65
2023/09/24 13:53:04;;;;;;;;;;;22.80;1.00;;;;;;5081339;28;19931;-64
2023/09/24 13:55:35;;;;;;;;;;;22.90;1.00;;;;;;5081339;28;19920;-64
2023/09/24 13:58:02;;;;;;;;;;;23.10;1.00;;;;;;5065192;28;19924;-64
2023/09/24 14:00:28;;;;;;;;;;;23.60;1.00;;;;;;5064402;28;19924;-64
2023/09/24 14:02:54;;;;;;;;;;;23.60;1.00;;;;;;5081741;28;20263;-64
2023/09/24 14:05:19;;;;;;;;;;;23.70;1.00;;;;;;5064250;28;19921;-64
2023/09/24 14:07:45;;;;;;;;;;;23.70;1.00;;;;;;5064311;28;19942;-64
2023/09/24 14:12:55;;;;;;;;;;;23.90;1.00;;;;;;5081164;28;19928;-64
2023/09/24 14:15:20;;;;;;;;;;;23.90;1.00;;;;;;5082359;28;19990;-64
2023/09/24 14:17:46;;;;;;;;;;;23.70;1.00;;;;;;5069213;28;19996;-65
2023/09/24 14:20:12;;;;;;;;;;;23.70;1.00;;;;;;5061422;28;19920;-66
2023/09/24 14:22:37;;;;;;;;;;;23.60;1.00;;;;;;5059635;28;19921;-64